createdAt,value
2022-10-13T00:04:03.179Z,4.60
2022-10-13T00:06:33.447Z,4.82
2022-10-13T00:09:02.599Z,4.85
2022-10-13T00:11:32.401Z,5.03
2022-10-13T00:14:03.330Z,4.68
2022-10-13T00:16:33.774Z,5.10
2022-10-13T00:19:03.203Z,5.00
2022-10-13T00:21:33.543Z,4.43
2022-10-13T00:24:02.649Z,4.60
2022-10-13T00:26:31.544Z,4.55
2022-10-13T00:29:00.456Z,4.10
2022-10-13T00:31:31.879Z,4.75
2022-10-13T00:34:02.321Z,4.63
2022-10-13T00:36:33.241Z,4.60
2022-10-13T00:39:02.232Z,4.38
2022-10-13T00:41:32.282Z,4.38
2022-10-13T00:44:03.387Z,4.00
2022-10-13T00:46:34.020Z,4.25
2022-10-13T00:49:07.585Z,3.67
2022-10-13T00:51:42.000Z,3.80
2022-10-13T00:54:14.990Z,4.22
2022-10-13T00:56:44.056Z,4.10
2022-10-13T00:59:22.981Z,4.00
2022-10-13T01:01:52.814Z,3.50
2022-10-13T01:04:26.742Z,3.08
2022-10-13T01:06:58.111Z,3.90
2022-10-13T01:09:27.189Z,3.50
2022-10-13T01:12:11.747Z,3.83
2022-10-13T01:14:49.393Z,3.10
2022-10-13T01:17:31.105Z,3.30
2022-10-13T01:20:54.163Z,3.13
2022-10-13T01:23:47.300Z,3.30
2022-10-13T01:26:43.020Z,3.35
2022-10-13T01:29:34.278Z,3.97
2022-10-13T01:32:13.870Z,4.07
2022-10-13T01:34:51.984Z,4.23
2022-10-13T01:37:27.885Z,3.60
2022-10-13T01:40:05.483Z,4.07
2022-10-13T01:42:42.134Z,3.45
2022-10-13T01:45:20.284Z,3.53
2022-10-13T01:47:52.757Z,3.60
2022-10-13T01:50:23.221Z,3.60
2022-10-13T01:52:53.154Z,3.42
2022-10-13T01:55:22.092Z,3.10
2022-10-13T01:57:50.961Z,3.38
2022-10-13T02:00:22.480Z,2.70
2022-10-13T02:03:06.648Z,3.05
2022-10-13T02:05:43.968Z,4.00
2022-10-13T02:08:18.379Z,4.80
2022-10-13T02:10:53.551Z,4.10
2022-10-13T02:13:26.071Z,5.30
2022-10-13T02:16:00.250Z,4.68
2022-10-13T02:18:34.024Z,4.90
2022-10-13T02:21:04.465Z,4.93
2022-10-13T02:23:33.873Z,4.88
2022-10-13T02:26:02.893Z,4.80
2022-10-13T02:28:32.351Z,4.60
2022-10-13T02:31:01.253Z,4.15
2022-10-13T02:33:31.602Z,3.92
2022-10-13T02:36:00.671Z,3.83
2022-10-13T02:38:29.531Z,4.13
2022-10-13T02:40:58.614Z,5.03
2022-10-13T02:43:27.691Z,4.97
2022-10-13T02:45:56.692Z,5.93
2022-10-13T02:48:25.552Z,6.30
2022-10-13T02:50:56.071Z,6.38
2022-10-13T02:55:53.599Z,6.13
2022-10-13T02:58:22.667Z,6.85
2022-10-13T03:00:52.344Z,6.93
2022-10-13T03:03:21.241Z,7.10
2022-10-13T03:05:51.381Z,6.45
2022-10-13T03:08:21.759Z,7.10
2022-10-13T03:13:19.669Z,6.63
2022-10-13T03:15:48.695Z,5.55
2022-10-13T03:18:17.619Z,5.97
2022-10-13T03:20:46.795Z,5.45
2022-10-13T03:23:15.645Z,5.82
2022-10-13T03:25:46.399Z,5.10
2022-10-13T03:28:15.547Z,4.50
2022-10-13T03:30:48.171Z,4.40
2022-10-13T03:33:17.268Z,4.40
2022-10-13T03:35:46.597Z,4.68
2022-10-13T03:38:15.471Z,4.35
2022-10-13T03:40:45.930Z,4.25
2022-10-13T03:45:43.454Z,3.67
2022-10-13T03:48:12.563Z,3.80
2022-10-13T03:50:41.688Z,3.90
2022-10-13T03:53:12.559Z,3.72
2022-10-13T03:55:41.876Z,3.70
2022-10-13T03:58:12.157Z,3.83
2022-10-13T04:00:45.215Z,4.00
2022-10-13T04:03:14.178Z,4.00
2022-10-13T04:05:43.311Z,3.63
2022-10-13T04:08:12.743Z,3.60
2022-10-13T04:10:42.041Z,3.08
2022-10-13T04:13:12.300Z,3.30
2022-10-13T04:15:43.500Z,3.38
2022-10-13T04:18:13.262Z,3.03
2022-10-13T04:20:42.213Z,3.30
2022-10-13T04:23:11.309Z,3.83
2022-10-13T04:25:46.295Z,3.70
2022-10-13T04:28:16.980Z,3.72
2022-10-13T04:30:49.454Z,3.90
2022-10-13T04:33:18.936Z,4.60
2022-10-13T04:35:47.812Z,4.50
2022-10-13T04:38:16.694Z,4.97
2022-10-13T04:40:45.785Z,5.60
2022-10-13T04:43:16.160Z,6.45
2022-10-13T04:45:45.246Z,6.65
2022-10-13T04:48:14.587Z,6.93
2022-10-13T04:50:43.881Z,6.43
2022-10-13T04:53:16.766Z,6.93
2022-10-13T04:55:48.021Z,6.78
2022-10-13T04:58:18.477Z,6.78
2022-10-13T05:03:16.543Z,6.90
2022-10-13T05:05:45.668Z,6.78
2022-10-13T05:08:14.554Z,7.47
2022-10-13T05:10:43.430Z,7.70
2022-10-13T05:13:12.505Z,7.85
2022-10-13T05:15:42.763Z,8.07
2022-10-13T05:20:40.558Z,8.05
2022-10-13T05:23:09.548Z,9.32
2022-10-13T05:25:39.579Z,9.00
2022-10-13T05:28:11.866Z,8.20
2022-10-13T05:30:42.401Z,7.90
2022-10-13T05:35:39.919Z,9.00
2022-10-13T05:38:08.998Z,8.30
2022-10-13T05:40:37.899Z,8.15
2022-10-13T05:43:07.849Z,8.27
2022-10-13T05:45:37.129Z,8.60
2022-10-13T05:48:08.243Z,9.18
2022-10-13T05:50:37.803Z,8.68
2022-10-13T05:53:07.048Z,8.98
2022-10-13T05:55:35.957Z,9.00
2022-10-13T05:58:05.055Z,8.63
2022-10-13T06:00:34.031Z,8.52
2022-10-13T06:03:11.215Z,8.98
2022-10-13T06:05:45.264Z,9.32
2022-10-13T06:08:14.772Z,9.98
2022-10-13T06:10:44.881Z,10.82
2022-10-13T06:13:14.265Z,9.90
2022-10-13T06:15:43.156Z,10.40
2022-10-13T06:18:13.407Z,10.57
2022-10-13T06:20:42.583Z,10.65
2022-10-13T06:23:11.571Z,11.23
2022-10-13T06:25:47.519Z,12.13
2022-10-13T06:28:18.842Z,11.60
2022-10-13T06:30:53.243Z,11.57
2022-10-13T06:33:26.350Z,11.10
2022-10-13T06:35:55.264Z,10.13
2022-10-13T06:38:24.381Z,11.77
2022-10-13T06:40:53.272Z,10.60
2022-10-13T06:43:26.036Z,10.48
2022-10-13T06:46:04.128Z,11.10
2022-10-13T06:48:34.652Z,10.70
2022-10-13T06:51:05.147Z,10.02
2022-10-13T06:53:34.272Z,10.77
2022-10-13T06:56:07.508Z,10.70
2022-10-13T06:58:36.933Z,10.70
2022-10-13T07:01:06.849Z,11.15
2022-10-13T07:06:07.928Z,10.23
2022-10-13T07:08:37.372Z,10.50
2022-10-13T07:11:15.859Z,10.02
2022-10-13T07:13:47.154Z,10.90
2022-10-13T07:16:17.911Z,10.93
2022-10-13T07:18:49.397Z,12.43
2022-10-13T07:21:18.404Z,11.43
2022-10-13T07:23:47.485Z,10.80
2022-10-13T07:26:17.434Z,11.35
2022-10-13T07:28:46.588Z,11.13
2022-10-13T07:31:17.422Z,11.23
2022-10-13T07:33:49.600Z,10.63
2022-10-13T07:36:19.810Z,9.93
2022-10-13T07:38:49.184Z,10.25
2022-10-13T07:41:18.409Z,10.05
2022-10-13T07:43:47.404Z,9.88
2022-10-13T07:46:16.808Z,10.60
2022-10-13T07:48:45.764Z,9.63
2022-10-13T07:51:16.962Z,10.73
2022-10-13T07:53:46.704Z,10.27
2022-10-13T07:56:16.907Z,10.32
2022-10-13T07:58:48.094Z,9.63
2022-10-13T08:01:18.396Z,9.75
2022-10-13T08:06:22.003Z,9.82
2022-10-13T08:08:53.861Z,9.93
2022-10-13T08:11:23.459Z,9.05
2022-10-13T08:13:53.940Z,9.13
2022-10-13T08:16:23.380Z,9.85
2022-10-13T08:18:52.989Z,9.60
2022-10-13T08:21:45.852Z,9.93
2022-10-13T08:26:44.183Z,9.02
2022-10-13T08:29:22.866Z,8.88
2022-10-13T08:31:53.654Z,8.20
2022-10-13T08:34:23.798Z,8.35
2022-10-13T08:36:56.682Z,8.48
2022-10-13T08:39:26.683Z,7.47
2022-10-13T08:41:57.856Z,7.78
2022-10-13T08:45:16.177Z,7.65
2022-10-13T08:47:36.980Z,7.10
2022-10-13T08:50:13.756Z,7.05
2022-10-13T08:52:49.981Z,7.63
2022-10-13T08:55:26.374Z,7.35
2022-10-13T08:57:55.528Z,6.82
2022-10-13T09:00:29.838Z,7.35
2022-10-13T09:03:09.759Z,7.20
2022-10-13T09:05:44.469Z,5.60
2022-10-13T09:08:20.619Z,5.45
2022-10-13T09:10:50.477Z,6.35
2022-10-13T09:13:21.397Z,5.78
2022-10-13T09:15:51.560Z,5.90
2022-10-13T09:18:28.337Z,6.53
2022-10-13T09:21:12.105Z,6.10
2022-10-13T09:23:42.386Z,6.32
2022-10-13T09:26:20.451Z,5.40
2022-10-13T09:28:50.260Z,5.30
2022-10-13T09:31:25.423Z,4.70
2022-10-13T09:34:02.029Z,4.57
2022-10-13T09:36:31.837Z,4.57
2022-10-13T09:39:13.620Z,5.22
2022-10-13T09:41:43.793Z,5.15
2022-10-13T09:44:15.826Z,4.75
2022-10-13T09:46:52.142Z,4.90
2022-10-13T09:49:37.390Z,5.32
2022-10-13T09:52:19.007Z,4.45
2022-10-13T09:54:52.177Z,4.60
2022-10-13T09:57:29.780Z,5.10
2022-10-13T10:00:07.921Z,4.35
2022-10-13T10:02:51.158Z,4.43
2022-10-13T10:05:25.574Z,4.30
2022-10-13T10:08:04.084Z,4.63
2022-10-13T10:10:37.501Z,4.40
2022-10-13T10:13:12.801Z,4.93
2022-10-13T10:15:54.163Z,3.58
2022-10-13T10:18:29.894Z,4.15
2022-10-13T10:21:07.916Z,4.15
2022-10-13T10:23:48.487Z,4.10
2022-10-13T10:26:28.844Z,4.60
2022-10-13T10:29:30.511Z,4.22
2022-10-13T10:32:23.040Z,3.75
2022-10-13T10:34:58.178Z,4.40
2022-10-13T10:37:50.975Z,3.42
2022-10-13T10:40:32.790Z,3.83
2022-10-13T10:43:25.633Z,3.65
2022-10-13T10:45:58.665Z,3.30
2022-10-13T10:48:34.794Z,3.78
2022-10-13T10:51:06.915Z,3.80
2022-10-13T10:53:43.389Z,3.30
2022-10-13T10:56:21.016Z,3.90
2022-10-13T10:59:03.659Z,3.72
2022-10-13T11:01:38.581Z,3.95
2022-10-13T11:04:41.692Z,3.97
2022-10-13T11:07:35.196Z,4.03
2022-10-13T11:10:21.353Z,3.92
2022-10-13T11:13:17.703Z,4.38
2022-10-13T11:15:47.296Z,3.83
2022-10-13T11:18:53.619Z,3.80
2022-10-13T11:21:23.239Z,3.38
2022-10-13T11:23:52.556Z,3.88
2022-10-13T11:26:44.233Z,3.60
2022-10-13T11:29:39.305Z,4.13
2022-10-13T11:32:42.882Z,3.70
2022-10-13T11:35:24.895Z,4.00
2022-10-13T11:38:24.852Z,3.30
2022-10-13T11:43:47.640Z,3.60
2022-10-13T11:46:35.668Z,3.97
2022-10-13T11:49:25.501Z,4.18
2022-10-13T11:52:19.215Z,4.28
2022-10-13T11:54:52.833Z,3.88
2022-10-13T11:57:25.279Z,4.18
2022-10-13T11:59:57.122Z,3.97
2022-10-13T12:02:31.690Z,3.70
2022-10-13T12:05:03.369Z,4.38
2022-10-13T12:07:36.578Z,4.05
2022-10-13T12:10:09.793Z,4.68
2022-10-13T12:12:38.972Z,4.18
2022-10-13T12:15:29.504Z,4.55
2022-10-13T12:17:58.725Z,4.85
2022-10-13T12:20:33.712Z,5.00
2022-10-13T12:23:02.794Z,4.50
2022-10-13T12:25:33.617Z,4.28
2022-10-13T12:28:03.196Z,4.68
2022-10-13T12:30:37.060Z,4.75
2022-10-13T12:33:20.418Z,5.22
2022-10-13T12:35:49.516Z,4.32
2022-10-13T12:38:21.174Z,4.78
2022-10-13T12:40:53.338Z,4.50
2022-10-13T12:43:26.396Z,4.78
2022-10-13T12:45:57.016Z,4.63
2022-10-13T12:48:31.597Z,4.50
2022-10-13T12:51:15.772Z,4.93
2022-10-13T12:53:47.705Z,4.90
2022-10-13T12:56:29.387Z,4.47
2022-10-13T12:58:59.262Z,4.50
2022-10-13T13:04:02.705Z,5.07
2022-10-13T13:06:37.873Z,4.60
2022-10-13T13:09:31.783Z,4.72
2022-10-13T13:12:24.797Z,4.50
2022-10-13T13:14:55.759Z,4.95
2022-10-13T13:17:57.043Z,4.82
2022-10-13T13:20:25.831Z,4.97
2022-10-13T13:22:55.001Z,4.50
2022-10-13T13:25:24.412Z,4.03
2022-10-13T13:27:53.710Z,4.32
2022-10-13T13:30:24.563Z,4.38
2022-10-13T13:32:54.909Z,4.65
2022-10-13T13:35:24.007Z,4.50
2022-10-13T13:37:54.291Z,4.50
2022-10-13T13:40:25.268Z,4.50
2022-10-13T13:42:54.933Z,4.60
2022-10-13T13:45:26.469Z,4.72
2022-10-13T13:48:00.683Z,4.75
2022-10-13T13:50:34.870Z,4.55
2022-10-13T13:53:04.798Z,5.28
2022-10-13T13:55:34.346Z,4.90
2022-10-13T13:58:03.564Z,4.82
2022-10-13T14:00:32.516Z,4.78
2022-10-13T14:03:02.759Z,5.30
2022-10-13T14:05:31.898Z,4.72
2022-10-13T14:08:01.192Z,5.32
2022-10-13T14:10:30.208Z,4.90
2022-10-13T14:12:59.290Z,4.80
2022-10-13T14:15:29.914Z,5.30
2022-10-13T14:17:59.136Z,4.57
2022-10-13T14:20:29.700Z,4.72
2022-10-13T14:22:59.764Z,5.07
2022-10-13T14:25:28.670Z,5.30
2022-10-13T14:27:57.747Z,4.88
2022-10-13T14:30:26.634Z,5.05
2022-10-13T14:32:55.533Z,4.90
2022-10-13T14:35:25.344Z,4.97
2022-10-13T14:37:55.587Z,4.30
2022-10-13T14:40:24.511Z,4.68
2022-10-13T14:42:53.609Z,4.45
2022-10-13T14:45:22.501Z,4.85
2022-10-13T14:47:54.129Z,4.45
2022-10-13T14:50:23.246Z,5.00
2022-10-13T14:52:58.864Z,5.03
2022-10-13T14:55:30.150Z,5.68
2022-10-13T14:57:59.237Z,5.05
2022-10-13T15:00:28.428Z,4.82
2022-10-13T15:02:57.317Z,4.90
2022-10-13T15:05:27.778Z,4.85
2022-10-13T15:07:58.286Z,5.37
2022-10-13T15:10:27.225Z,4.75
2022-10-13T15:12:56.107Z,5.25
2022-10-13T15:15:25.292Z,5.35
2022-10-13T15:17:55.384Z,5.18
2022-10-13T15:20:24.284Z,4.43
2022-10-13T15:22:54.349Z,5.03
2022-10-13T15:25:24.599Z,4.97
2022-10-13T15:27:53.471Z,4.90
2022-10-13T15:30:22.565Z,4.93
2022-10-13T15:32:54.459Z,4.53
2022-10-13T15:35:23.557Z,4.85
2022-10-13T15:37:52.427Z,4.35
2022-10-13T15:40:21.857Z,4.63
2022-10-13T15:42:53.817Z,5.75
2022-10-13T15:45:22.828Z,5.50
2022-10-13T15:47:53.392Z,5.03
2022-10-13T15:50:22.268Z,5.38
2022-10-13T15:52:51.724Z,5.75
2022-10-13T15:55:20.864Z,5.90
2022-10-13T15:57:51.404Z,5.83
2022-10-13T16:00:20.686Z,5.47
2022-10-13T16:02:56.031Z,6.30
2022-10-13T16:05:25.440Z,5.75
2022-10-13T16:07:54.578Z,5.50
2022-10-13T16:10:23.825Z,6.20
2022-10-13T16:12:54.751Z,5.95
2022-10-13T16:15:23.835Z,6.50
2022-10-13T16:17:53.876Z,6.53
2022-10-13T16:23:04.851Z,6.20
2022-10-13T16:25:34.443Z,6.93
2022-10-13T16:28:04.895Z,6.50
2022-10-13T16:30:36.756Z,6.65
2022-10-13T16:33:05.763Z,6.28
2022-10-13T16:35:35.404Z,7.57
2022-10-13T16:38:05.321Z,7.43
2022-10-13T16:40:34.519Z,7.40
2022-10-13T16:43:04.766Z,8.35
2022-10-13T16:45:55.261Z,7.85
2022-10-13T16:48:27.147Z,6.82
2022-10-13T16:50:56.256Z,8.48
2022-10-13T16:53:26.046Z,8.63
2022-10-13T16:55:55.116Z,8.90
2022-10-13T16:58:25.401Z,8.93
2022-10-13T17:00:54.595Z,8.70
2022-10-13T17:03:23.521Z,8.18
2022-10-13T17:08:22.994Z,8.75
2022-10-13T17:10:57.947Z,8.55
2022-10-13T17:13:29.506Z,8.50
2022-10-13T17:15:59.395Z,10.32
2022-10-13T17:18:29.601Z,11.20
2022-10-13T17:21:00.675Z,10.85
2022-10-13T17:23:30.879Z,12.10
2022-10-13T17:26:03.726Z,10.95
2022-10-13T17:28:34.767Z,11.38
2022-10-13T17:31:06.553Z,11.07
2022-10-13T17:33:37.595Z,11.15
2022-10-13T17:36:09.741Z,10.45
2022-10-13T17:38:39.300Z,10.55
2022-10-13T17:41:10.073Z,11.40
2022-10-13T17:43:45.643Z,10.80
2022-10-13T17:46:35.472Z,10.10
2022-10-13T17:49:06.122Z,9.30
2022-10-13T17:51:35.475Z,8.07
2022-10-13T17:54:04.712Z,7.80
2022-10-13T17:56:33.620Z,7.70
2022-10-13T17:59:04.431Z,7.63
2022-10-13T18:01:35.031Z,8.38
2022-10-13T18:04:08.464Z,8.20
2022-10-13T18:06:40.621Z,8.60
2022-10-13T18:09:11.798Z,7.70
2022-10-13T18:11:44.410Z,7.80
2022-10-13T18:14:19.605Z,8.15
2022-10-13T18:16:50.669Z,8.18
2022-10-13T18:19:20.650Z,7.73
2022-10-13T18:21:49.563Z,8.02
2022-10-13T18:24:18.932Z,7.97
2022-10-13T18:26:48.182Z,8.18
2022-10-13T18:29:18.656Z,8.40
2022-10-13T18:31:48.513Z,8.80
2022-10-13T18:34:18.628Z,8.98
2022-10-13T18:36:48.866Z,8.20
2022-10-13T18:39:20.294Z,8.70
2022-10-13T18:41:50.796Z,7.80
2022-10-13T18:46:52.035Z,7.43
2022-10-13T18:49:30.604Z,8.15
2022-10-13T18:52:00.258Z,7.78
2022-10-13T18:54:30.351Z,8.85
2022-10-13T18:56:59.356Z,8.60
2022-10-13T18:59:29.742Z,8.85
2022-10-13T19:01:59.020Z,9.35
2022-10-13T19:04:28.056Z,8.85
2022-10-13T19:06:56.936Z,8.80
2022-10-13T19:09:26.413Z,8.40
2022-10-13T19:11:57.586Z,9.10
2022-10-13T19:14:28.090Z,9.38
2022-10-13T19:19:32.005Z,8.88
2022-10-13T19:22:02.737Z,9.00
2022-10-13T19:24:32.658Z,9.32
2022-10-13T19:27:01.958Z,8.53
2022-10-13T19:29:32.851Z,9.23
2022-10-13T19:32:02.099Z,9.05
2022-10-13T19:34:31.035Z,9.80
2022-10-13T19:37:01.830Z,9.50
2022-10-13T19:39:30.735Z,10.10
2022-10-13T19:42:00.155Z,9.85
2022-10-13T19:44:29.058Z,9.20
2022-10-13T19:46:59.541Z,8.77
2022-10-13T19:51:57.177Z,8.90
2022-10-13T19:54:30.198Z,9.20
2022-10-13T19:57:01.988Z,9.80
2022-10-13T19:59:33.372Z,10.38
2022-10-13T20:02:03.665Z,9.48
2022-10-13T20:04:32.825Z,9.93
2022-10-13T20:07:02.100Z,10.75
2022-10-13T20:09:31.255Z,11.10
2022-10-13T20:12:00.171Z,11.48
2022-10-13T20:14:29.094Z,9.82
2022-10-13T20:16:58.562Z,10.27
2022-10-13T20:19:28.925Z,11.52
2022-10-13T20:24:27.629Z,10.68
2022-10-13T20:26:58.287Z,11.07
2022-10-13T20:29:28.151Z,9.82
2022-10-13T20:31:57.029Z,10.60
2022-10-13T20:34:27.318Z,10.02
2022-10-13T20:36:56.561Z,9.88
2022-10-13T20:39:25.466Z,10.18
2022-10-13T20:41:54.356Z,9.57
2022-10-13T20:44:23.470Z,10.27
2022-10-13T20:46:52.563Z,9.60
2022-10-13T20:49:23.912Z,9.52
2022-10-13T20:51:54.234Z,9.43
2022-10-13T20:54:23.744Z,10.60
2022-10-13T20:56:53.880Z,9.93
2022-10-13T20:59:22.848Z,9.88
2022-10-13T21:01:51.995Z,10.07
2022-10-13T21:04:21.022Z,10.10
2022-10-13T21:06:50.199Z,10.32
2022-10-13T21:09:20.883Z,9.20
2022-10-13T21:11:50.162Z,9.32
2022-10-13T21:14:19.080Z,10.63
2022-10-13T21:16:48.278Z,10.30
2022-10-13T21:19:17.224Z,9.73
2022-10-13T21:21:46.724Z,10.20
2022-10-13T21:24:15.776Z,9.05
2022-10-13T21:26:46.317Z,9.95
2022-10-13T21:29:15.911Z,10.45
2022-10-13T21:31:45.031Z,10.93
2022-10-13T21:34:14.556Z,11.25
2022-10-13T21:36:44.921Z,10.88
2022-10-13T21:39:15.265Z,10.95
2022-10-13T21:41:46.391Z,12.68
2022-10-13T21:44:15.614Z,11.95
2022-10-13T21:46:44.556Z,12.07
2022-10-13T21:49:13.696Z,12.05
2022-10-13T21:51:42.793Z,11.63
2022-10-13T21:54:13.477Z,11.80
2022-10-13T21:56:43.115Z,12.05
2022-10-13T21:59:14.961Z,11.02
2022-10-13T22:01:44.071Z,12.25
2022-10-13T22:04:16.390Z,11.88
2022-10-13T22:06:45.728Z,11.77
2022-10-13T22:09:14.981Z,11.60
2022-10-13T22:11:44.231Z,12.50
2022-10-13T22:14:14.950Z,12.45
2022-10-13T22:16:46.293Z,12.90
2022-10-13T22:19:16.929Z,13.25
2022-10-13T22:21:48.191Z,12.63
2022-10-13T22:24:19.058Z,12.55
2022-10-13T22:26:49.952Z,12.43
2022-10-13T22:29:22.786Z,13.27
2022-10-13T22:31:56.127Z,12.40
2022-10-13T22:34:25.734Z,12.52
2022-10-13T22:36:55.165Z,12.48
2022-10-13T22:39:24.514Z,12.65
2022-10-13T22:41:55.403Z,11.77
2022-10-13T22:44:25.911Z,11.73
2022-10-13T22:46:54.983Z,12.15
2022-10-13T22:49:23.849Z,12.70
2022-10-13T22:51:52.728Z,11.75
2022-10-13T22:54:21.856Z,11.57
2022-10-13T22:56:50.731Z,11.70
2022-10-13T22:59:19.639Z,11.85
2022-10-13T23:01:50.680Z,12.57
2022-10-13T23:04:19.559Z,12.65
2022-10-13T23:06:48.423Z,11.77
2022-10-13T23:09:17.538Z,11.88
2022-10-13T23:11:46.450Z,11.98
2022-10-13T23:14:20.909Z,12.18
2022-10-13T23:16:51.359Z,12.27
2022-10-13T23:19:20.929Z,12.77
2022-10-13T23:21:50.228Z,11.43
2022-10-13T23:24:19.254Z,11.90
2022-10-13T23:26:48.153Z,12.32
2022-10-13T23:29:17.268Z,12.52
2022-10-13T23:31:46.142Z,12.10
2022-10-13T23:34:16.409Z,12.63
2022-10-13T23:36:45.650Z,11.90
2022-10-13T23:39:14.668Z,12.10
2022-10-13T23:41:43.688Z,12.65
2022-10-13T23:44:12.880Z,12.32
2022-10-13T23:46:44.495Z,12.52
2022-10-13T23:49:17.629Z,11.77
2022-10-13T23:51:46.492Z,12.43
2022-10-13T23:54:15.368Z,12.85
2022-10-13T23:56:44.493Z,12.82
2022-10-13T23:59:13.391Z,13.25
